Lockhart, Louisiana
Current Conditions -  °F | °C
As of 3:53 PM on Monday 20 Oct 2014 (Local Time) from KELD Reporting Station
Clear Clear  
Wind Chill: 74°   Ceiling: Unl
Heat Index: 74°   Visibility: 10mi
Dew Point: 52°   Wind: 5mph
Humidity: 46%   Direction: 300°WNW
Pressure: 30.05"   Gusts: NA
Location:  32.9317°N, 92.5282°W
Report Text: KELD 202053Z AUTO 30004KT 10SM CLR 23/11 A3005 RMK AO2 SLP173 T02330111 56016
Loading
Personal Weather Stations






























Interactive Weather Map
Tropical Storm Tracking
New forecast layout! Learn more

10-Day Weather Forecast

Advertisements
Track Severe Weather on mobile